Time;durP1;ratioP1;P1;durP2;ratioP2;P2;SDS_P1;SDS_P2;PMS_P1;PMS_P2;Temp;Humidity;BMP_temperature;BMP_pressure;BME280_temperature;BME280_humidity;BME280_pressure;Samples;Min_cycle;Max_cycle;Signal;HPM_P1;HPM_P2
2023/03/25 00:00:58;;;;;;;13.20;2.72;;;10.00;99.90;;;;;;5048341;28;20397;-91
2023/03/25 00:03:32;;;;;;;15.27;2.83;;;10.00;99.90;;;;;;5045964;28;20146;-91
2023/03/25 00:05:59;;;;;;;13.65;3.10;;;9.90;99.90;;;;;;5053664;28;20147;-90
2023/03/25 00:08:25;;;;;;;14.68;2.95;;;10.00;99.90;;;;;;5052211;28;20047;-91
2023/03/25 00:10:57;;;;;;;16.90;3.28;;;9.90;99.90;;;;;;5048423;28;20032;-90
2023/03/25 00:13:23;;;;;;;14.23;3.13;;;10.00;99.90;;;;;;5055099;28;20111;-91
2023/03/25 00:15:57;;;;;;;17.92;3.45;;;10.00;99.90;;;;;;5074327;28;20074;-91
2023/03/25 00:18:24;;;;;;;17.48;3.45;;;10.00;99.90;;;;;;5029621;28;20033;-90
2023/03/25 00:20:51;;;;;;;12.57;2.92;;;10.00;99.90;;;;;;5061485;28;20040;-91
2023/03/25 00:23:19;;;;;;;13.23;3.05;;;9.90;99.90;;;;;;5053584;28;20114;-90
2023/03/25 00:25:46;;;;;;;15.57;3.50;;;10.00;99.90;;;;;;5065056;28;20528;-91
2023/03/25 00:28:13;;;;;;;14.07;2.83;;;10.00;99.90;;;;;;5051354;28;20040;-90
2023/03/25 00:30:40;;;;;;;13.00;3.08;;;9.90;99.90;;;;;;5062655;28;20056;-91
2023/03/25 00:33:09;;;;;;;16.90;3.00;;;10.00;99.90;;;;;;5044863;28;20100;-89
2023/03/25 00:35:37;;;;;;;15.35;3.05;;;9.90;99.90;;;;;;5084314;28;20083;-91
2023/03/25 00:38:03;;;;;;;16.38;3.08;;;9.90;99.90;;;;;;5041449;28;20425;-91
2023/03/25 00:40:35;;;;;;;14.73;2.70;;;9.90;99.90;;;;;;5048562;28;20048;-91
2023/03/25 00:43:03;;;;;;;13.18;2.75;;;9.70;99.90;;;;;;5081417;28;20047;-90
2023/03/25 00:45:29;;;;;;;10.10;2.75;;;9.90;99.90;;;;;;5052284;28;20044;-90
2023/03/25 00:47:55;;;;;;;14.55;2.80;;;9.80;99.90;;;;;;5069425;28;20040;-90
2023/03/25 00:50:22;;;;;;;17.02;3.83;;;9.80;99.90;;;;;;5048876;28;20408;-91
2023/03/25 00:52:48;;;;;;;15.07;3.20;;;;;;;;;;5053257;28;20049;-91
2023/03/25 00:55:14;;;;;;;14.40;2.90;;;9.70;99.90;;;;;;5067836;28;20132;-90
2023/03/25 00:57:40;;;;;;;20.35;3.55;;;9.70;99.90;;;;;;5063524;28;20482;-90
2023/03/25 01:00:10;;;;;;;17.88;3.28;;;9.60;99.90;;;;;;5071467;28;20051;-91
2023/03/25 01:02:38;;;;;;;13.55;2.90;;;;;;;;;;5069786;28;20052;-91
2023/03/25 01:05:05;;;;;;;14.68;3.25;;;9.40;99.90;;;;;;5075420;28;20048;-91
2023/03/25 01:07:31;;;;;;;14.95;3.28;;;9.50;99.90;;;;;;5075301;28;20041;-90
2023/03/25 01:10:01;;;;;;;16.45;3.25;;;;;;;;;;5069251;28;20106;-91
2023/03/25 01:12:27;;;;;;;12.90;2.53;;;9.40;99.90;;;;;;5073928;28;20405;-90
2023/03/25 01:14:53;;;;;;;15.20;3.20;;;9.40;99.90;;;;;;5074436;28;20041;-90
2023/03/25 01:17:19;;;;;;;17.45;3.78;;;9.30;99.90;;;;;;5046672;28;20040;-91
2023/03/25 01:19:45;;;;;;;16.02;3.17;;;9.30;99.90;;;;;;5060019;28;20024;-91
2023/03/25 01:22:11;;;;;;;12.48;2.92;;;9.30;99.90;;;;;;5052893;28;20405;-91
2023/03/25 01:24:37;;;;;;;15.27;3.20;;;9.20;99.90;;;;;;5039106;28;20558;-90
2023/03/25 01:27:03;;;;;;;18.33;3.20;;;9.20;99.90;;;;;;5039335;28;20052;-91
2023/03/25 01:29:29;;;;;;;15.90;4.13;;;9.10;99.90;;;;;;5060358;28;20036;-91
2023/03/25 01:31:55;;;;;;;17.77;3.30;;;9.10;99.90;;;;;;5075995;28;20110;-91
2023/03/25 01:34:21;;;;;;;17.23;3.05;;;9.00;99.90;;;;;;5060524;28;20036;-91
2023/03/25 01:36:48;;;;;;;15.73;3.63;;;9.10;99.90;;;;;;5057643;28;20107;-91
2023/03/25 01:39:17;;;;;;;18.08;3.20;;;9.00;99.90;;;;;;5058650;28;20056;-92
2023/03/25 01:41:45;;;;;;;16.63;3.78;;;9.00;99.90;;;;;;5072308;28;20094;-92
2023/03/25 01:44:13;;;;;;;22.20;3.33;;;9.00;99.90;;;;;;5071212;28;20044;-91
2023/03/25 01:46:43;;;;;;;18.55;3.95;;;9.00;99.90;;;;;;5074385;28;20054;-92
2023/03/25 01:49:15;;;;;;;21.05;3.72;;;9.00;99.90;;;;;;5040981;28;20044;-92
2023/03/25 01:51:46;;;;;;;14.52;3.00;;;9.00;99.90;;;;;;5055168;28;20068;-91
2023/03/25 01:54:16;;;;;;;17.63;3.83;;;8.90;99.90;;;;;;5063596;28;20040;-91
2023/03/25 01:56:45;;;;;;;18.45;3.30;;;8.90;99.90;;;;;;5090420;28;20043;-91
2023/03/25 01:59:13;;;;;;;15.70;3.35;;;8.70;99.90;;;;;;5071829;28;20071;-91
2023/03/25 02:01:39;;;;;;;18.73;3.15;;;8.90;99.90;;;;;;5057538;28;20075;-91
2023/03/25 02:04:10;;;;;;;19.60;3.28;;;;;;;;;;5037146;28;20048;-91
2023/03/25 02:06:43;;;;;;;17.25;3.88;;;8.90;99.90;;;;;;5059176;28;20041;-91
2023/03/25 02:09:12;;;;;;;19.00;3.90;;;8.90;99.90;;;;;;5063916;28;20036;-91
2023/03/25 02:11:39;;;;;;;13.05;3.15;;;8.90;99.90;;;;;;5054666;28;20123;-91
2023/03/25 02:14:09;;;;;;;15.77;3.15;;;8.70;99.90;;;;;;5061652;28;20508;-89
2023/03/25 02:17:03;;;;;;;18.70;4.13;;;8.90;99.90;;;;;;5074958;28;20127;-91
2023/03/25 02:20:08;;;;;;;16.23;3.22;;;8.90;99.90;;;;;;5038634;28;20044;-91
2023/03/25 02:22:55;;;;;;;18.48;4.07;;;8.80;99.90;;;;;;5072552;28;20066;-90
2023/03/25 02:25:53;;;;;;;21.75;4.55;;;8.80;99.90;;;;;;5071953;28;20036;-91
2023/03/25 02:28:56;;;;;;;19.17;3.42;;;8.80;99.90;;;;;;5067913;28;20101;-90
2023/03/25 02:31:50;;;;;;;13.88;3.65;;;8.80;99.90;;;;;;5066028;28;20279;-92
2023/03/25 02:34:40;;;;;;;18.55;3.85;;;8.80;99.90;;;;;;5088849;28;20032;-91
2023/03/25 02:37:52;;;;;;;18.17;3.83;;;8.80;99.90;;;;;;5054614;28;20044;-93
2023/03/25 02:40:39;;;;;;;19.17;3.92;;;8.80;99.90;;;;;;5041850;28;20040;-91
2023/03/25 02:43:19;;;;;;;21.27;4.18;;;9.20;99.90;;;;;;5001477;28;20093;-91
2023/03/25 02:45:50;;;;;;;22.83;4.00;;;8.80;99.90;;;;;;5069395;28;20608;-92
2023/03/25 02:48:32;;;;;;;23.00;4.90;;;8.80;99.90;;;;;;5053165;28;20076;-91
2023/03/25 02:51:05;;;;;;;21.13;4.18;;;8.80;99.90;;;;;;5068492;28;20039;-93
2023/03/25 02:53:35;;;;;;;23.48;4.53;;;6.70;99.90;;;;;;5069673;28;20098;-89
2023/03/25 02:56:08;;;;;;;26.33;4.63;;;8.80;99.90;;;;;;5070042;28;20045;-91
2023/03/25 02:58:34;;;;;;;23.55;3.90;;;8.90;99.90;;;;;;5053809;28;21091;-91
2023/03/25 03:01:00;;;;;;;24.75;4.32;;;8.90;99.90;;;;;;5058385;28;20470;-91
2023/03/25 03:03:27;;;;;;;21.65;4.88;;;8.90;99.90;;;;;;5043146;28;20174;-90
2023/03/25 03:05:58;;;;;;;18.65;3.80;;;8.90;99.90;;;;;;5049563;28;20117;-92
2023/03/25 03:08:45;;;;;;;21.55;3.90;;;8.90;99.90;;;;;;5068964;28;20040;-91
2023/03/25 03:11:32;;;;;;;21.65;3.83;;;8.90;99.90;;;;;;5059316;28;20066;-90
2023/03/25 03:14:21;;;;;;;18.15;3.25;;;8.90;99.90;;;;;;5063447;28;20055;-90
2023/03/25 03:16:50;;;;;;;23.63;3.85;;;;;;;;;;5069278;28;20155;-91
2023/03/25 03:19:22;;;;;;;20.02;3.65;;;8.90;99.90;;;;;;5069781;28;20115;-91
2023/03/25 03:22:07;;;;;;;22.05;4.10;;;9.60;99.90;;;;;;5051932;28;20044;-90
2023/03/25 03:24:39;;;;;;;21.38;4.15;;;8.90;99.90;;;;;;5062327;28;20401;-92
2023/03/25 03:27:35;;;;;;;18.58;3.72;;;8.90;99.90;;;;;;5066417;28;20772;-91
2023/03/25 03:30:11;;;;;;;19.73;4.60;;;8.90;99.90;;;;;;5085802;28;20492;-90
2023/03/25 03:33:00;;;;;;;24.63;3.88;;;8.90;99.90;;;;;;5069060;28;20718;-91
2023/03/25 03:35:38;;;;;;;22.65;3.47;;;8.90;99.90;;;;;;5067018;28;20461;-91
2023/03/25 03:38:10;;;;;;;24.52;4.53;;;8.90;99.90;;;;;;5050204;28;20110;-91
2023/03/25 03:40:36;;;;;;;18.42;3.78;;;;;;;;;;5053713;28;20032;-90
2023/03/25 03:43:07;;;;;;;22.23;4.15;;;8.90;99.90;;;;;;5068349;28;20040;-92
2023/03/25 03:45:47;;;;;;;19.63;3.72;;;8.90;99.90;;;;;;5065428;28;20477;-91
2023/03/25 03:48:32;;;;;;;18.35;4.07;;;8.90;99.90;;;;;;5069299;28;20154;-91
2023/03/25 03:51:06;;;;;;;23.02;4.38;;;8.90;99.90;;;;;;5049079;28;20045;-91
2023/03/25 03:53:48;;;;;;;20.67;3.67;;;8.90;99.90;;;;;;5062088;28;20040;-91
2023/03/25 03:56:24;;;;;;;22.77;4.43;;;8.90;99.90;;;;;;5041572;28;20037;-91
2023/03/25 03:58:53;;;;;;;16.67;3.65;;;8.80;99.90;;;;;;5066011;28;20041;-90
2023/03/25 04:01:32;;;;;;;18.80;3.78;;;8.80;99.90;;;;;;5052154;28;20516;-91
2023/03/25 04:04:09;;;;;;;18.75;4.22;;;8.80;99.90;;;;;;5041982;28;20057;-91
2023/03/25 04:06:46;;;;;;;18.30;3.65;;;9.10;99.90;;;;;;5052783;28;20098;-91
2023/03/25 04:09:26;;;;;;;21.25;3.30;;;8.80;99.90;;;;;;5075370;28;20036;-90
2023/03/25 04:12:01;;;;;;;20.20;4.22;;;9.50;99.90;;;;;;5071287;28;20067;-91
2023/03/25 04:14:27;;;;;;;18.23;3.63;;;9.90;99.90;;;;;;5045529;28;20044;-92
2023/03/25 04:16:54;;;;;;;17.95;4.00;;;8.70;99.90;;;;;;5036679;28;20097;-90
2023/03/25 04:19:20;;;;;;;19.67;3.70;;;8.70;99.90;;;;;;5066635;28;20044;-91
2023/03/25 04:21:49;;;;;;;21.98;4.18;;;8.70;99.90;;;;;;5068932;28;21992;-91
2023/03/25 04:24:18;;;;;;;22.30;3.95;;;8.70;99.90;;;;;;5069934;28;20497;-91
2023/03/25 04:26:44;;;;;;;16.90;3.67;;;8.70;99.90;;;;;;5052381;28;20036;-91
2023/03/25 04:29:12;;;;;;;20.23;4.20;;;;;;;;;;5043703;28;20124;-91
2023/03/25 04:31:44;;;;;;;17.73;3.80;;;8.70;99.90;;;;;;5065355;28;20057;-90
2023/03/25 04:34:15;;;;;;;22.48;3.97;;;8.70;99.90;;;;;;5051167;28;20100;-91
2023/03/25 04:36:45;;;;;;;16.58;4.10;;;;;;;;;;5055584;28;20533;-92
2023/03/25 04:39:11;;;;;;;19.83;4.53;;;8.70;99.90;;;;;;5074224;28;20497;-91
2023/03/25 04:41:38;;;;;;;22.50;4.13;;;8.70;99.90;;;;;;5043256;28;20037;-91
2023/03/25 04:44:06;;;;;;;21.05;4.07;;;8.30;99.90;;;;;;5073369;28;20107;-91
2023/03/25 04:46:33;;;;;;;18.63;3.72;;;8.70;99.90;;;;;;5055285;28;20040;-91
2023/03/25 04:48:59;;;;;;;19.10;4.15;;;8.70;99.90;;;;;;5056447;28;20046;-92
2023/03/25 04:51:25;;;;;;;21.00;3.75;;;8.70;99.90;;;;;;5047993;28;20048;-93
2023/03/25 04:53:51;;;;;;;18.73;3.88;;;8.70;99.90;;;;;;5038401;28;20682;-90
2023/03/25 04:56:17;;;;;;;20.70;3.83;;;8.70;99.90;;;;;;5069039;28;20037;-91
2023/03/25 04:58:44;;;;;;;18.38;4.25;;;8.70;99.90;;;;;;5070909;28;20105;-90
2023/03/25 05:01:30;;;;;;;19.10;4.07;;;7.20;99.90;;;;;;5069362;28;20045;-91
2023/03/25 05:04:03;;;;;;;17.27;4.13;;;9.40;99.90;;;;;;5061664;28;20053;-90
2023/03/25 05:06:31;;;;;;;17.10;3.60;;;8.60;99.90;;;;;;5064966;28;20505;-91
2023/03/25 05:09:00;;;;;;;19.50;4.35;;;8.60;99.90;;;;;;5067058;28;20040;-91
2023/03/25 05:11:27;;;;;;;18.90;3.80;;;8.60;99.90;;;;;;5037959;28;20044;-91
2023/03/25 05:13:54;;;;;;;21.70;3.80;;;8.60;99.90;;;;;;5051405;28;20497;-91
2023/03/25 05:16:20;;;;;;;19.75;4.47;;;8.60;99.90;;;;;;5039793;28;20078;-91
2023/03/25 05:18:46;;;;;;;16.88;3.92;;;9.10;99.90;;;;;;5056115;28;20040;-91
2023/03/25 05:21:12;;;;;;;20.30;4.45;;;8.60;99.90;;;;;;5055168;28;20040;-92
2023/03/25 05:23:37;;;;;;;13.38;3.38;;;8.60;99.90;;;;;;5064485;28;20471;-91
2023/03/25 05:26:03;;;;;;;18.23;4.07;;;8.60;99.90;;;;;;5056613;28;20342;-92
2023/03/25 05:28:29;;;;;;;23.20;4.25;;;8.60;99.90;;;;;;5060284;28;20053;-92
2023/03/25 05:30:55;;;;;;;23.50;4.38;;;6.80;99.90;;;;;;5026121;28;20338;-91
2023/03/25 05:33:21;;;;;;;17.60;4.13;;;8.60;99.90;;;;;;5058462;28;20043;-90
2023/03/25 05:35:48;;;;;;;19.38;3.80;;;8.60;99.90;;;;;;5054895;28;20040;-90
2023/03/25 05:38:18;;;;;;;19.83;4.15;;;8.30;99.90;;;;;;5068792;28;20055;-91
2023/03/25 05:40:45;;;;;;;21.33;4.22;;;9.80;99.90;;;;;;5070247;28;20517;-91
2023/03/25 05:43:13;;;;;;;22.00;4.22;;;8.60;99.90;;;;;;5044230;28;20036;-91
2023/03/25 05:45:40;;;;;;;17.38;3.85;;;8.60;99.90;;;;;;5072439;28;20055;-92
2023/03/25 05:48:07;;;;;;;26.33;4.32;;;8.70;99.90;;;;;;5073040;28;20040;-92
2023/03/25 05:50:33;;;;;;;25.50;4.97;;;8.70;99.90;;;;;;5057549;28;20495;-92
2023/03/25 05:52:59;;;;;;;23.90;4.15;;;8.50;99.90;;;;;;5056936;28;20079;-92
2023/03/25 05:55:26;;;;;;;21.90;4.10;;;8.80;99.90;;;;;;5059385;28;20044;-91
2023/03/25 05:57:52;;;;;;;25.40;5.57;;;9.70;99.90;;;;;;5056520;28;20097;-91
2023/03/25 06:00:20;;;;;;;26.88;4.43;;;8.80;99.90;;;;;;5056624;28;20107;-91
2023/03/25 06:02:47;;;;;;;20.35;4.30;;;9.00;99.90;;;;;;5061092;28;20037;-92
2023/03/25 06:05:14;;;;;;;21.40;4.25;;;8.80;99.90;;;;;;5052274;28;20048;-92
2023/03/25 06:07:44;;;;;;;26.05;5.03;;;8.80;99.90;;;;;;5043216;28;20506;-92
2023/03/25 06:10:11;;;;;;;21.30;4.68;;;8.80;99.90;;;;;;5052330;28;20486;-91
2023/03/25 06:12:45;;;;;;;23.48;5.05;;;8.90;99.90;;;;;;5051965;28;20037;-91
2023/03/25 06:15:13;;;;;;;24.67;4.65;;;8.90;99.90;;;;;;5054347;28;20469;-90
2023/03/25 06:17:40;;;;;;;26.55;4.63;;;8.90;99.90;;;;;;5072813;28;20052;-93
2023/03/25 06:20:12;;;;;;;22.40;4.45;;;9.30;99.90;;;;;;5057621;28;20071;-90
2023/03/25 06:22:39;;;;;;;;;;;8.90;99.90;;;;;;5056024;28;20080;-90
2023/03/25 06:25:06;;;;;;;20.70;3.85;;;;;;;;;;5054810;28;19916;-93
2023/03/25 06:27:33;;;;;;;20.05;4.47;;;9.00;99.90;;;;;;5072787;28;20041;-93
2023/03/25 06:30:01;;;;;;;24.52;5.00;;;9.00;99.90;;;;;;5061325;28;20052;-89
2023/03/25 06:32:27;;;;;;;20.35;4.85;;;;;;;;;;5056745;28;20105;-91
2023/03/25 06:34:52;;;;;;;19.23;4.60;;;9.00;99.90;;;;;;5075796;28;20313;-91
2023/03/25 06:37:18;;;;;;;23.77;4.60;;;9.00;99.90;;;;;;5045627;28;20185;-93
2023/03/25 06:39:45;;;;;;;22.25;4.63;;;9.00;99.90;;;;;;5022914;28;20398;-93
2023/03/25 06:42:11;;;;;;;22.83;4.35;;;9.10;99.90;;;;;;5034904;28;20871;-90
2023/03/25 06:44:36;;;;;;;29.23;4.57;;;9.10;99.90;;;;;;5049630;28;21386;-92
2023/03/25 06:47:05;;;;;;;20.20;5.07;;;;;;;;;;5032269;28;20040;-89
2023/03/25 06:49:34;;;;;;;20.02;4.57;;;9.10;99.90;;;;;;5063826;28;20040;-91
2023/03/25 06:52:00;;;;;;;23.65;4.45;;;8.90;99.90;;;;;;5042913;28;20087;-90
2023/03/25 06:54:25;;;;;;;23.25;4.38;;;9.10;99.90;;;;;;5045633;28;20528;-90
2023/03/25 06:56:51;;;;;;;21.52;4.13;;;9.00;99.90;;;;;;5058205;28;20160;-93
2023/03/25 06:59:17;;;;;;;21.20;4.18;;;9.00;99.90;;;;;;5049307;28;20063;-89
2023/03/25 07:01:42;;;;;;;19.15;4.43;;;9.00;99.90;;;;;;5031258;28;20044;-90
2023/03/25 07:04:08;;;;;;;24.75;4.53;;;9.00;99.90;;;;;;5030706;28;20056;-91
2023/03/25 07:06:34;;;;;;;21.83;5.43;;;10.60;99.90;;;;;;5050879;28;20559;-91
2023/03/25 07:09:00;;;;;;;23.98;4.50;;;9.10;99.90;;;;;;5047671;28;20041;-90
2023/03/25 07:11:29;;;;;;;21.13;4.32;;;9.20;99.90;;;;;;5048978;28;20032;-90
2023/03/25 07:13:55;;;;;;;21.98;5.22;;;9.20;99.90;;;;;;5052282;28;20044;-90
2023/03/25 07:16:21;;;;;;;23.55;4.50;;;9.20;99.90;;;;;;5029720;28;20090;-89
2023/03/25 07:18:49;;;;;;;16.88;3.88;;;9.30;99.90;;;;;;5045558;28;20123;-91
2023/03/25 07:21:15;;;;;;;19.25;4.30;;;;;;;;;;5066132;28;20256;-90
2023/03/25 07:23:41;;;;;;;20.83;3.97;;;;;;;;;;5066774;28;20153;-90
2023/03/25 07:26:07;;;;;;;22.00;4.38;;;9.40;99.90;;;;;;5049452;28;20040;-92
2023/03/25 07:28:33;;;;;;;17.60;3.63;;;;;;;;;;5046002;28;20051;-90
2023/03/25 07:30:59;;;;;;;18.98;3.72;;;9.60;99.90;;;;;;5050653;28;20082;-90
2023/03/25 07:33:25;;;;;;;23.10;4.22;;;9.60;99.90;;;;;;5062447;28;20153;-91
2023/03/25 07:35:50;;;;;;;19.23;4.25;;;9.80;99.90;;;;;;5045037;28;20040;-89
2023/03/25 07:38:16;;;;;;;17.67;3.42;;;9.60;99.90;;;;;;5043437;28;20038;-91
2023/03/25 07:40:42;;;;;;;19.00;3.67;;;9.50;99.90;;;;;;5062649;28;20048;-88
2023/03/25 07:43:08;;;;;;;23.05;3.85;;;9.50;99.90;;;;;;5062906;28;20052;-88
2023/03/25 07:45:33;;;;;;;18.05;3.20;;;9.40;99.90;;;;;;5043779;28;20130;-88
2023/03/25 07:48:00;;;;;;;15.48;3.38;;;9.30;99.90;;;;;;5045379;28;20055;-88
2023/03/25 07:50:26;;;;;;;18.15;3.97;;;9.30;99.90;;;;;;5061580;28;20115;-87
2023/03/25 07:52:53;;;;;;;15.68;3.33;;;;;;;;;;5061808;28;20622;-88
2023/03/25 07:55:19;;;;;;;18.15;4.13;;;9.20;99.90;;;;;;5062184;28;20448;-88
2023/03/25 07:57:45;;;;;;;17.98;3.55;;;9.20;99.90;;;;;;5062039;28;20033;-88
2023/03/25 08:00:17;;;;;;;18.08;3.15;;;9.20;99.90;;;;;;5061394;28;20127;-89
2023/03/25 08:02:43;;;;;;;12.02;2.55;;;9.10;99.90;;;;;;5059882;28;20067;-89
2023/03/25 08:05:08;;;;;;;14.32;2.97;;;9.00;99.90;;;;;;5044895;28;20083;-91
2023/03/25 08:07:34;;;;;;;15.65;3.30;;;8.90;99.90;;;;;;5041058;28;20044;-92
2023/03/25 08:10:00;;;;;;;17.33;3.15;;;8.90;99.90;;;;;;5044556;28;20094;-91
2023/03/25 08:12:26;;;;;;;15.95;3.47;;;6.60;99.90;;;;;;5048154;28;20137;-90
2023/03/25 08:14:52;;;;;;;16.05;3.15;;;;;;;;;;5049243;28;20033;-90
2023/03/25 08:17:17;;;;;;;18.15;2.92;;;8.90;99.90;;;;;;5049855;28;20493;-90
2023/03/25 08:19:43;;;;;;;20.83;4.00;;;8.90;99.90;;;;;;5047617;28;20043;-90
2023/03/25 08:22:09;;;;;;;14.27;2.95;;;9.00;99.90;;;;;;5033908;28;20045;-92
2023/03/25 08:24:35;;;;;;;13.82;2.80;;;;;;;;;;5029938;28;20571;-89
2023/03/25 08:27:04;;;;;;;14.55;3.00;;;9.00;99.90;;;;;;5065719;28;20171;-89
2023/03/25 08:29:33;;;;;;;13.10;2.95;;;8.90;99.90;;;;;;5029045;28;21287;-89
2023/03/25 08:32:00;;;;;;;10.57;2.70;;;;;;;;;;5065070;28;20087;-88
2023/03/25 08:34:26;;;;;;;16.13;3.75;;;;;;;;;;5061520;28;20044;-89
2023/03/25 08:36:52;;;;;;;13.23;2.50;;;9.00;99.90;;;;;;5063632;28;20453;-88
2023/03/25 08:39:17;;;;;;;17.33;3.15;;;9.10;99.90;;;;;;5030663;28;20044;-90
2023/03/25 08:41:44;;;;;;;11.15;2.65;;;9.10;99.90;;;;;;5046654;28;20053;-90
2023/03/25 08:44:10;;;;;;;15.30;3.10;;;9.20;99.90;;;;;;5049443;28;20141;-89
2023/03/25 08:46:36;;;;;;;17.50;3.53;;;9.70;99.90;;;;;;5063896;28;20119;-90
2023/03/25 08:49:03;;;;;;;14.25;3.33;;;9.20;99.90;;;;;;5028213;28;20048;-93
2023/03/25 08:51:29;;;;;;;18.35;3.55;;;;;;;;;;5082118;28;20047;-90
2023/03/25 08:53:55;;;;;;;19.98;3.60;;;9.30;99.90;;;;;;5049592;28;20488;-89
2023/03/25 08:56:21;;;;;;;17.00;2.90;;;;;;;;;;5032205;28;20075;-89
2023/03/25 08:58:47;;;;;;;15.18;3.08;;;9.30;99.90;;;;;;5067684;28;20085;-90
2023/03/25 09:01:13;;;;;;;14.70;3.17;;;9.50;99.90;;;;;;5035574;28;20036;-92
2023/03/25 09:03:39;;;;;;;17.52;3.38;;;9.70;99.90;;;;;;5028992;28;20117;-89
2023/03/25 09:06:06;;;;;;;14.13;3.40;;;9.60;99.90;;;;;;5031054;28;20037;-90
2023/03/25 09:08:33;;;;;;;17.05;3.33;;;9.70;99.90;;;;;;5063172;28;20489;-89
2023/03/25 09:10:58;;;;;;;21.90;4.03;;;9.60;99.90;;;;;;5048448;28;20055;-90
2023/03/25 09:13:24;;;;;;;17.50;3.47;;;9.50;99.90;;;;;;5063259;28;20044;-90
2023/03/25 09:15:50;;;;;;;18.35;3.47;;;9.50;99.90;;;;;;5046552;28;20046;-90
2023/03/25 09:18:16;;;;;;;19.35;3.95;;;9.40;99.90;;;;;;5063254;28;20098;-89
2023/03/25 09:20:42;;;;;;;20.50;3.65;;;9.30;99.90;;;;;;5049000;28;20119;-91
2023/03/25 09:23:11;;;;;;;16.42;3.67;;;9.40;99.90;;;;;;5031163;28;20036;-91
2023/03/25 09:25:37;;;;;;;22.13;3.97;;;9.40;99.90;;;;;;5063254;28;20036;-90
2023/03/25 09:28:02;;;;;;;16.23;3.88;;;9.50;99.90;;;;;;5049632;28;20040;-89
2023/03/25 09:30:28;;;;;;;17.75;3.35;;;9.50;99.90;;;;;;5077977;28;20041;-88
2023/03/25 09:32:54;;;;;;;15.68;3.35;;;9.40;99.90;;;;;;5046359;28;20036;-92
2023/03/25 09:35:20;;;;;;;15.02;3.28;;;;;;;;;;5030123;28;20158;-89
2023/03/25 09:37:46;;;;;;;15.23;3.40;;;9.80;99.90;;;;;;5066491;28;20040;-91
2023/03/25 09:40:15;;;;;;;16.27;3.33;;;9.80;99.90;;;;;;5054703;28;20037;-89
2023/03/25 09:43:03;;;;;;;15.90;3.63;;;9.90;99.90;;;;;;5053366;28;20097;-91
2023/03/25 09:45:31;;;;;;;14.85;2.97;;;10.30;99.90;;;;;;5056062;28;20595;-90
2023/03/25 09:48:42;;;;;;;17.48;3.03;;;10.20;99.90;;;;;;5071837;28;20441;-91
2023/03/25 09:51:30;;;;;;;15.15;3.33;;;10.50;99.90;;;;;;5052528;28;20048;-90
2023/03/25 09:54:11;;;;;;;14.88;2.90;;;10.40;99.90;;;;;;5060511;28;20032;-90
2023/03/25 09:56:40;;;;;;;15.25;3.08;;;10.50;99.90;;;;;;5042149;28;20037;-94
2023/03/25 09:59:22;;;;;;;12.88;3.25;;;9.40;99.90;;;;;;5071286;28;20180;-90
2023/03/25 10:02:03;;;;;;;13.65;2.97;;;10.60;99.90;;;;;;5057617;28;20072;-91
2023/03/25 10:05:05;;;;;;;12.75;3.22;;;10.60;99.90;;;;;;5068802;28;20060;-90
2023/03/25 10:07:36;;;;;;;16.27;3.28;;;10.60;99.90;;;;;;5038952;28;20039;-90
2023/03/25 10:10:36;;;;;;;18.00;3.55;;;10.60;99.90;;;;;;5075425;28;20405;-90
2023/03/25 10:13:02;;;;;;;14.60;2.85;;;;;;;;;;5070771;28;20044;-90
2023/03/25 10:15:37;;;;;;;12.60;3.05;;;10.90;99.90;;;;;;5070299;28;20133;-90
2023/03/25 10:18:26;;;;;;;17.13;3.20;;;11.00;99.90;;;;;;5074353;28;20040;-89
2023/03/25 10:21:21;;;;;;;13.98;2.75;;;9.30;99.90;;;;;;5062183;28;20112;-91
2023/03/25 10:24:13;;;;;;;13.82;2.88;;;11.00;99.90;;;;;;5050818;28;20037;-90
2023/03/25 10:26:58;;;;;;;11.95;3.05;;;11.10;99.90;;;;;;5055240;28;20494;-91
2023/03/25 10:29:55;;;;;;;14.57;3.25;;;11.10;99.90;;;;;;5072012;28;20052;-91
2023/03/25 10:32:40;;;;;;;15.95;3.50;;;11.10;99.90;;;;;;5023300;28;20080;-90
2023/03/25 10:35:14;;;;;;;13.98;2.78;;;11.20;99.90;;;;;;5049580;28;20044;-90
2023/03/25 10:37:40;;;;;;;15.98;3.10;;;11.20;99.90;;;;;;5070720;28;20044;-91
2023/03/25 10:40:28;;;;;;;14.70;2.70;;;11.20;99.90;;;;;;5063044;28;20094;-92
2023/03/25 10:43:12;;;;;;;12.60;3.70;;;11.10;99.90;;;;;;5071504;28;20486;-90
2023/03/25 10:45:40;;;;;;;13.90;3.20;;;11.00;99.90;;;;;;5067433;28;20047;-93
2023/03/25 10:48:23;;;;;;;12.95;2.97;;;11.10;99.90;;;;;;5038348;28;20089;-92
2023/03/25 10:50:51;;;;;;;16.77;3.70;;;11.10;99.90;;;;;;5061405;28;20317;-92
2023/03/25 10:53:25;;;;;;;15.55;3.17;;;11.10;99.90;;;;;;5054362;28;20044;-91
2023/03/25 10:56:04;;;;;;;14.70;3.45;;;12.80;99.90;;;;;;5069684;28;20048;-91
2023/03/25 10:58:31;;;;;;;18.35;3.42;;;11.20;99.90;;;;;;5055096;28;20024;-90
2023/03/25 11:01:00;;;;;;;16.33;3.30;;;11.10;99.90;;;;;;5057011;28;20037;-90
2023/03/25 11:03:32;;;;;;;15.90;3.00;;;11.00;99.90;;;;;;5066889;28;20397;-91
2023/03/25 11:05:58;;;;;;;16.83;4.10;;;10.90;99.90;;;;;;5053117;28;20044;-90
2023/03/25 11:08:26;;;;;;;16.65;2.80;;;10.90;99.90;;;;;;5036647;28;20119;-91
2023/03/25 11:10:56;;;;;;;15.77;3.25;;;10.80;99.90;;;;;;5044163;28;20503;-91
2023/03/25 11:13:29;;;;;;;17.83;3.42;;;10.80;99.90;;;;;;5071917;28;20037;-88
2023/03/25 11:16:00;;;;;;;14.75;2.80;;;10.80;99.90;;;;;;5069499;28;20045;-91
2023/03/25 11:18:37;;;;;;;15.13;2.97;;;10.90;99.90;;;;;;5053355;28;20123;-89
2023/03/25 11:21:08;;;;;;;15.73;3.13;;;10.90;99.90;;;;;;5068279;28;20143;-90
2023/03/25 11:23:50;;;;;;;13.15;3.10;;;10.90;99.90;;;;;;5069582;28;20516;-91
2023/03/25 11:26:25;;;;;;;13.25;3.00;;;10.90;99.90;;;;;;5069422;28;20047;-90
2023/03/25 11:28:54;;;;;;;15.38;3.42;;;11.00;99.90;;;;;;5041463;28;20032;-90
2023/03/25 11:31:23;;;;;;;15.13;3.47;;;11.20;99.90;;;;;;5052476;28;20400;-91
2023/03/25 11:34:13;;;;;;;15.18;2.80;;;11.40;99.90;;;;;;5061046;28;20109;-89
2023/03/25 11:36:46;;;;;;;15.90;3.25;;;11.50;99.90;;;;;;5079549;28;20071;-90
2023/03/25 11:39:15;;;;;;;;;;;11.50;99.90;;;;;;5070770;28;20107;-89
2023/03/25 11:41:40;;;;;;;16.85;3.40;;;11.60;99.90;;;;;;5068254;28;19920;-91
2023/03/25 11:44:07;;;;;;;13.07;3.05;;;11.60;99.90;;;;;;5054098;28;20039;-92
2023/03/25 11:46:34;;;;;;;13.30;2.88;;;11.60;99.90;;;;;;5024348;28;20047;-91
2023/03/25 11:49:10;;;;;;;11.73;2.90;;;11.60;99.90;;;;;;5050654;28;20109;-90
2023/03/25 11:51:37;;;;;;;12.38;2.80;;;11.60;99.90;;;;;;5051681;28;20055;-91
2023/03/25 11:54:14;;;;;;;12.80;2.70;;;11.70;99.90;;;;;;5070640;28;20043;-92
2023/03/25 11:56:43;;;;;;;12.32;2.55;;;11.70;99.90;;;;;;5069904;28;20079;-90
2023/03/25 11:59:37;;;;;;;12.25;2.92;;;11.60;99.90;;;;;;5054987;28;20045;-92
2023/03/25 12:02:22;;;;;;;15.60;2.60;;;11.70;99.90;;;;;;5053600;28;20044;-90
2023/03/25 12:05:18;;;;;;;11.10;2.60;;;11.80;99.90;;;;;;5069241;28;20053;-92
2023/03/25 12:07:58;;;;;;;11.23;2.50;;;12.00;99.90;;;;;;5047610;28;20040;-91
2023/03/25 12:10:31;;;;;;;14.77;3.03;;;12.30;99.90;;;;;;5058786;28;20044;-89
2023/03/25 12:13:03;;;;;;;12.43;2.47;;;;;;;;;;5068543;28;20041;-92
2023/03/25 12:15:37;;;;;;;10.93;2.30;;;12.20;99.90;;;;;;5068914;28;20052;-90
2023/03/25 12:18:12;;;;;;;13.25;2.67;;;12.20;99.90;;;;;;5066348;28;20048;-90
2023/03/25 12:20:41;;;;;;;11.57;2.75;;;12.20;99.90;;;;;;5044510;28;20086;-93
2023/03/25 12:23:25;;;;;;;13.18;3.05;;;12.20;99.90;;;;;;5050810;28;20040;-92
2023/03/25 12:26:12;;;;;;;10.52;2.53;;;12.30;99.90;;;;;;5066847;28;20048;-92
2023/03/25 12:29:08;;;;;;;13.27;2.97;;;12.30;99.90;;;;;;5056113;28;20044;-91
2023/03/25 12:31:41;;;;;;;13.77;2.65;;;12.20;99.90;;;;;;5068711;28;20597;-93
2023/03/25 12:34:39;;;;;;;13.20;2.60;;;12.10;99.90;;;;;;5068569;28;20072;-91
2023/03/25 12:37:28;;;;;;;10.27;2.20;;;11.90;99.90;;;;;;5058850;28;20488;-91
2023/03/25 12:40:26;;;;;;;11.77;2.40;;;11.80;99.90;;;;;;5067098;28;20039;-91
2023/03/25 12:43:14;;;;;;;13.27;2.97;;;11.70;99.90;;;;;;5064708;28;20064;-91
2023/03/25 12:46:02;;;;;;;11.60;3.00;;;11.70;99.90;;;;;;5069150;28;20489;-91
2023/03/25 12:48:57;;;;;;;13.15;2.60;;;11.90;99.90;;;;;;5040704;28;20041;-90
2023/03/25 12:51:38;;;;;;;12.80;2.67;;;12.20;99.90;;;;;;5066079;28;20047;-91
2023/03/25 12:54:44;;;;;;;14.48;2.42;;;12.40;99.90;;;;;;5069017;28;20041;-92
2023/03/25 12:57:31;;;;;;;14.23;2.85;;;12.30;99.90;;;;;;5025704;28;20056;-92
2023/03/25 13:00:26;;;;;;;15.50;2.63;;;12.20;99.90;;;;;;5067190;28;20444;-91
2023/03/25 13:03:23;;;;;;;13.77;2.90;;;12.00;99.90;;;;;;5076780;28;20048;-90
2023/03/25 13:06:16;;;;;;;15.15;2.63;;;12.00;99.90;;;;;;5073988;28;20052;-90
2023/03/25 13:08:45;;;;;;;;;;;11.80;99.90;;;;;;5087876;28;20036;-91
2023/03/25 13:11:30;;;;;;;11.32;2.30;;;11.60;99.90;;;;;;5070450;28;19931;-92
2023/03/25 13:14:03;;;;;;;12.80;3.03;;;11.60;99.90;;;;;;5070623;28;20033;-91
2023/03/25 13:16:32;;;;;;;10.80;2.60;;;11.60;99.90;;;;;;5071448;28;20388;-93
2023/03/25 13:19:08;;;;;;;9.48;2.70;;;11.40;99.90;;;;;;5065686;28;20116;-89